createdAt,value
2022-11-20T00:00:11.162Z,15.27
2022-11-20T00:02:37.190Z,18.70
2022-11-20T00:05:03.418Z,15.27
2022-11-20T00:07:29.497Z,15.10
2022-11-20T00:09:55.599Z,19.60
2022-11-20T00:12:21.613Z,17.13
2022-11-20T00:14:47.619Z,18.20
2022-11-20T00:17:13.636Z,15.33
2022-11-20T00:19:39.668Z,14.20
2022-11-20T00:22:05.689Z,16.00
2022-11-20T00:24:31.708Z,18.03
2022-11-20T00:26:57.749Z,18.03
2022-11-20T00:29:23.791Z,14.17
2022-11-20T00:31:49.882Z,20.10
2022-11-20T00:34:15.908Z,23.37
2022-11-20T00:36:42.033Z,17.50
2022-11-20T00:39:08.080Z,21.50
2022-11-20T00:41:34.148Z,17.77
2022-11-20T00:44:00.388Z,18.03
2022-11-20T00:46:27.852Z,21.20
2022-11-20T00:48:53.936Z,22.63
2022-11-20T00:51:23.038Z,20.07
2022-11-20T00:53:49.685Z,27.13
2022-11-20T00:56:17.881Z,19.20
2022-11-20T00:58:45.396Z,16.50
2022-11-20T01:01:17.548Z,23.00
2022-11-20T01:03:45.844Z,20.57
2022-11-20T01:06:20.276Z,20.53
2022-11-20T01:08:47.972Z,21.07
2022-11-20T01:11:23.059Z,14.33
2022-11-20T01:13:50.289Z,20.23
2022-11-20T01:16:21.433Z,14.27
2022-11-20T01:18:49.810Z,15.73
2022-11-20T01:21:27.470Z,17.43
2022-11-20T01:23:54.151Z,15.80
2022-11-20T01:26:22.878Z,16.67
2022-11-20T01:28:49.486Z,15.10
2022-11-20T01:31:36.561Z,15.30
2022-11-20T01:34:09.746Z,14.07
2022-11-20T01:36:37.701Z,13.70
2022-11-20T01:39:06.508Z,16.00
2022-11-20T01:41:52.119Z,10.93
2022-11-20T01:44:21.456Z,14.53
2022-11-20T01:46:59.741Z,13.87
2022-11-20T01:49:35.379Z,17.80
2022-11-20T01:52:08.436Z,13.37
2022-11-20T01:55:05.315Z,12.83
2022-11-20T01:57:32.434Z,13.63
2022-11-20T02:00:04.099Z,15.23
2022-11-20T02:02:30.130Z,15.30
2022-11-20T02:05:01.104Z,16.47
2022-11-20T02:07:27.140Z,14.37
2022-11-20T02:09:58.435Z,12.70
2022-11-20T02:12:43.397Z,12.00
2022-11-20T02:15:09.844Z,13.00
2022-11-20T02:17:35.888Z,13.13
2022-11-20T02:20:02.064Z,13.07
2022-11-20T02:22:31.836Z,13.17
2022-11-20T02:25:00.202Z,12.83
2022-11-20T02:27:26.410Z,12.67
2022-11-20T02:29:55.285Z,12.17
2022-11-20T02:32:30.857Z,13.20
2022-11-20T02:34:57.079Z,10.37
2022-11-20T02:37:23.760Z,10.40
2022-11-20T02:39:51.616Z,9.67
2022-11-20T02:42:18.369Z,15.23
2022-11-20T02:44:44.406Z,14.50
2022-11-20T02:47:10.464Z,11.33
2022-11-20T02:49:36.526Z,17.00
2022-11-20T02:52:02.603Z,11.00
2022-11-20T02:54:28.645Z,13.80
2022-11-20T02:56:54.721Z,12.70
2022-11-20T02:59:20.976Z,14.10
2022-11-20T03:01:47.167Z,14.17
2022-11-20T03:04:13.211Z,14.47
2022-11-20T03:06:39.237Z,18.90
2022-11-20T03:09:05.323Z,14.13
2022-11-20T03:11:31.373Z,17.33
2022-11-20T03:13:57.406Z,17.63
2022-11-20T03:16:24.171Z,24.87
2022-11-20T03:18:52.523Z,16.50
2022-11-20T03:21:18.724Z,15.53
2022-11-20T03:23:44.800Z,17.23
2022-11-20T03:26:16.899Z,18.23
2022-11-20T03:28:47.632Z,16.53
2022-11-20T03:31:15.072Z,15.47
2022-11-20T03:33:42.079Z,14.40
2022-11-20T03:36:11.031Z,11.77
2022-11-20T03:38:37.596Z,12.60
2022-11-20T03:41:27.606Z,16.03
2022-11-20T03:43:55.999Z,16.17
2022-11-20T03:46:22.154Z,17.60
2022-11-20T03:48:51.573Z,16.40
2022-11-20T03:51:31.922Z,16.03
2022-11-20T03:54:00.636Z,16.20
2022-11-20T03:56:29.432Z,16.23
2022-11-20T03:58:55.806Z,17.47
2022-11-20T04:01:24.522Z,13.73
2022-11-20T04:03:52.664Z,14.43
2022-11-20T04:06:20.886Z,15.17
2022-11-20T04:08:52.422Z,10.40
2022-11-20T04:11:22.940Z,14.20
2022-11-20T04:13:52.174Z,11.40
2022-11-20T04:16:19.046Z,13.77
2022-11-20T04:18:45.432Z,10.23
2022-11-20T04:21:12.033Z,12.00
2022-11-20T04:23:38.134Z,16.67
2022-11-20T04:26:08.662Z,10.73
2022-11-20T04:28:35.404Z,15.60
2022-11-20T04:31:03.260Z,16.20
2022-11-20T04:33:33.869Z,16.10
2022-11-20T04:36:15.145Z,12.13
2022-11-20T04:38:41.692Z,15.27
2022-11-20T04:41:10.340Z,15.43
2022-11-20T04:43:36.370Z,16.20
2022-11-20T04:46:02.402Z,15.00
2022-11-20T04:48:29.662Z,12.20
2022-11-20T04:50:55.799Z,12.13
2022-11-20T04:53:21.967Z,12.30
2022-11-20T04:55:48.037Z,10.90
2022-11-20T04:58:14.320Z,11.40
2022-11-20T05:00:40.432Z,11.03
2022-11-20T05:03:06.568Z,13.47
2022-11-20T05:05:34.741Z,10.47
2022-11-20T05:08:01.128Z,11.53
2022-11-20T05:10:27.285Z,12.60
2022-11-20T05:12:53.436Z,13.43
2022-11-20T05:15:19.922Z,12.13
2022-11-20T05:17:49.779Z,12.63
2022-11-20T05:20:16.156Z,12.20
2022-11-20T05:22:42.653Z,13.60
2022-11-20T05:25:08.855Z,13.23
2022-11-20T05:27:34.972Z,13.40
2022-11-20T05:30:01.031Z,14.03
2022-11-20T05:32:27.055Z,12.90
2022-11-20T05:34:53.287Z,15.20
2022-11-20T05:37:19.392Z,17.07
2022-11-20T05:39:45.413Z,11.30
2022-11-20T05:42:29.889Z,13.50
2022-11-20T05:44:56.733Z,16.97
2022-11-20T05:47:22.807Z,16.53
2022-11-20T05:49:48.822Z,17.37
2022-11-20T05:52:14.869Z,12.03
2022-11-20T05:54:40.981Z,12.50
2022-11-20T05:57:07.032Z,12.37
2022-11-20T05:59:33.040Z,16.67
2022-11-20T06:01:59.069Z,12.00
2022-11-20T06:04:25.173Z,12.03
2022-11-20T06:06:51.196Z,17.60
2022-11-20T06:09:17.208Z,15.10
2022-11-20T06:11:43.245Z,74.20
2022-11-20T06:14:09.274Z,36.17
2022-11-20T06:16:35.292Z,27.30
2022-11-20T06:19:01.300Z,17.97
2022-11-20T06:21:27.508Z,17.20
2022-11-20T06:23:54.308Z,19.30
2022-11-20T06:26:26.663Z,16.83
2022-11-20T06:28:53.000Z,18.50
2022-11-20T06:31:20.786Z,21.77
2022-11-20T06:33:47.048Z,19.93
2022-11-20T06:36:14.904Z,21.20
2022-11-20T06:38:41.044Z,17.50
2022-11-20T06:41:10.908Z,18.10
2022-11-20T06:43:36.939Z,16.73
2022-11-20T06:46:03.170Z,17.87
2022-11-20T06:48:29.627Z,15.70
2022-11-20T06:50:56.693Z,16.63
2022-11-20T06:53:23.369Z,19.57
2022-11-20T06:55:52.052Z,23.13
2022-11-20T06:58:18.509Z,16.20
2022-11-20T07:00:44.742Z,20.30
2022-11-20T07:03:12.052Z,22.73
2022-11-20T07:05:38.780Z,21.43
2022-11-20T07:08:05.279Z,22.23
2022-11-20T07:10:32.114Z,20.83
2022-11-20T07:12:58.133Z,21.60
2022-11-20T07:15:25.727Z,21.80
2022-11-20T07:17:52.141Z,22.10
2022-11-20T07:20:18.199Z,27.40
2022-11-20T07:22:44.221Z,20.33
2022-11-20T07:25:10.629Z,20.17
2022-11-20T07:27:36.700Z,21.33
2022-11-20T07:30:04.010Z,26.97
2022-11-20T07:32:30.168Z,20.20
2022-11-20T07:34:56.717Z,24.40
2022-11-20T07:37:22.736Z,21.20
2022-11-20T07:39:48.748Z,24.63
2022-11-20T07:42:14.755Z,20.70
2022-11-20T07:44:41.126Z,30.80
2022-11-20T07:47:07.176Z,35.53
2022-11-20T07:49:33.566Z,32.57
2022-11-20T07:52:04.404Z,23.47
2022-11-20T07:54:31.259Z,24.53
2022-11-20T07:56:57.271Z,21.90
2022-11-20T07:59:23.571Z,22.10
2022-11-20T08:01:50.224Z,22.60
2022-11-20T08:04:16.507Z,23.13
2022-11-20T08:06:42.702Z,22.70
2022-11-20T08:09:09.009Z,23.40
2022-11-20T08:11:53.548Z,16.40
2022-11-20T08:14:19.600Z,18.60
2022-11-20T08:16:47.662Z,21.53
2022-11-20T08:19:15.305Z,23.50
2022-11-20T08:21:41.889Z,21.83
2022-11-20T08:24:08.648Z,21.60
2022-11-20T08:26:36.008Z,16.77
2022-11-20T08:29:02.064Z,19.73
2022-11-20T08:31:28.307Z,18.70
2022-11-20T08:33:54.451Z,17.73
2022-11-20T08:36:21.301Z,19.23
2022-11-20T08:38:51.738Z,17.87
2022-11-20T08:41:23.701Z,21.60
2022-11-20T08:43:56.455Z,17.07
2022-11-20T08:46:24.264Z,20.23
2022-11-20T08:48:50.476Z,18.80
2022-11-20T08:51:17.161Z,20.33
2022-11-20T08:53:43.505Z,20.37
2022-11-20T08:56:10.007Z,25.17
2022-11-20T08:59:01.993Z,19.30
2022-11-20T09:01:23.991Z,19.50
2022-11-20T09:03:50.321Z,17.40
2022-11-20T09:06:16.606Z,20.53
2022-11-20T09:08:43.026Z,21.97
2022-11-20T09:11:09.302Z,21.87
2022-11-20T09:13:36.291Z,21.40
2022-11-20T09:16:07.854Z,18.37
2022-11-20T09:18:36.377Z,19.97
2022-11-20T09:21:05.325Z,23.47
2022-11-20T09:23:33.710Z,23.90
2022-11-20T09:26:03.289Z,23.93
2022-11-20T09:28:30.168Z,41.23
2022-11-20T09:30:56.319Z,20.07
2022-11-20T09:33:22.349Z,23.43
2022-11-20T09:35:48.428Z,24.77
2022-11-20T09:38:14.878Z,28.83
2022-11-20T09:40:47.499Z,25.70
2022-11-20T09:43:24.715Z,32.93
2022-11-20T09:45:55.795Z,18.87
2022-11-20T09:48:49.586Z,27.37
2022-11-20T09:51:22.508Z,26.63
2022-11-20T09:54:16.054Z,25.57
2022-11-20T09:56:45.510Z,25.07
2022-11-20T09:59:34.989Z,73.93
2022-11-20T10:02:02.756Z,26.43
2022-11-20T10:04:32.981Z,26.17
2022-11-20T10:07:32.649Z,20.37
2022-11-20T10:09:59.561Z,26.80
2022-11-20T10:12:34.355Z,22.27
2022-11-20T10:15:29.811Z,30.47
2022-11-20T10:18:21.425Z,22.37
2022-11-20T10:21:04.556Z,23.33
2022-11-20T10:23:52.463Z,19.90
2022-11-20T10:26:40.243Z,25.37
2022-11-20T10:29:11.997Z,20.17
2022-11-20T10:31:40.877Z,20.13
2022-11-20T10:34:22.378Z,22.90
2022-11-20T10:37:38.022Z,20.57
2022-11-20T10:40:18.695Z,20.63
2022-11-20T10:42:47.116Z,20.40
2022-11-20T10:45:28.113Z,21.83
2022-11-20T10:48:08.274Z,24.53
2022-11-20T10:50:36.924Z,25.90
2022-11-20T10:53:19.980Z,25.33
2022-11-20T10:55:51.224Z,22.30
2022-11-20T10:58:30.999Z,23.53
2022-11-20T11:01:14.183Z,27.00
2022-11-20T11:03:43.200Z,24.83
2022-11-20T11:06:40.537Z,24.20
2022-11-20T11:09:13.986Z,25.27
2022-11-20T11:11:40.100Z,27.27
2022-11-20T11:14:11.183Z,22.77
2022-11-20T11:16:49.473Z,27.13
2022-11-20T11:19:15.979Z,22.80
2022-11-20T11:21:55.099Z,23.80
2022-11-20T11:24:42.178Z,22.17
2022-11-20T11:27:17.243Z,21.73
2022-11-20T11:29:44.680Z,23.30
2022-11-20T11:32:28.786Z,24.17
2022-11-20T11:35:03.541Z,25.03
2022-11-20T11:37:39.066Z,21.33
2022-11-20T11:42:57.990Z,22.70
2022-11-20T11:45:24.170Z,20.13
2022-11-20T11:47:51.877Z,21.50
2022-11-20T11:50:21.032Z,26.07
2022-11-20T11:52:56.659Z,23.40
2022-11-20T11:55:31.076Z,25.20
2022-11-20T11:58:15.791Z,25.90
2022-11-20T12:00:50.193Z,29.03
2022-11-20T12:03:23.566Z,30.50
2022-11-20T12:05:55.129Z,26.70
2022-11-20T12:08:43.368Z,34.63
2022-11-20T12:11:31.326Z,25.47
2022-11-20T12:14:09.862Z,25.97
2022-11-20T12:16:37.598Z,28.40
2022-11-20T12:19:10.227Z,29.50
2022-11-20T12:21:59.831Z,30.23
2022-11-20T12:24:50.263Z,27.83
2022-11-20T12:27:53.303Z,31.47
2022-11-20T12:30:20.931Z,25.90
2022-11-20T12:33:08.332Z,30.07
2022-11-20T12:35:43.565Z,23.10
2022-11-20T12:38:28.432Z,35.97
2022-11-20T12:41:04.146Z,25.27
2022-11-20T12:43:54.983Z,36.93
2022-11-20T12:46:26.967Z,22.23
2022-11-20T12:49:16.710Z,26.03
2022-11-20T12:51:50.220Z,24.23
2022-11-20T12:54:25.160Z,26.73
2022-11-20T12:57:19.221Z,27.40
2022-11-20T12:59:57.973Z,24.87
2022-11-20T13:02:30.183Z,30.50
2022-11-20T13:04:59.189Z,27.63
2022-11-20T13:07:26.787Z,25.30
2022-11-20T13:09:53.595Z,37.13
2022-11-20T13:12:32.557Z,28.37
2022-11-20T13:15:17.462Z,21.83
2022-11-20T13:17:56.914Z,25.17
2022-11-20T13:20:23.668Z,32.07
2022-11-20T13:22:52.669Z,34.43
2022-11-20T13:25:23.465Z,25.67
2022-11-20T13:27:50.385Z,29.90
2022-11-20T13:30:19.482Z,26.60
2022-11-20T13:32:55.908Z,25.27
2022-11-20T13:35:54.474Z,25.87
2022-11-20T13:38:21.492Z,33.03
2022-11-20T13:40:58.921Z,29.13
2022-11-20T13:43:38.848Z,29.10
2022-11-20T13:46:07.292Z,27.37
2022-11-20T13:48:39.148Z,30.53
2022-11-20T13:51:05.269Z,29.13
2022-11-20T13:54:09.051Z,27.43
2022-11-20T13:56:47.574Z,29.87
2022-11-20T13:59:38.498Z,30.50
2022-11-20T14:02:11.439Z,27.70
2022-11-20T14:04:43.518Z,30.40
2022-11-20T14:07:10.657Z,30.07
2022-11-20T14:09:37.595Z,24.43
2022-11-20T14:12:05.251Z,20.00
2022-11-20T14:14:34.086Z,26.43
2022-11-20T14:17:18.746Z,22.20
2022-11-20T14:19:45.932Z,28.00
2022-11-20T14:22:19.462Z,32.73
2022-11-20T14:24:46.842Z,30.50
2022-11-20T14:27:20.941Z,32.67
2022-11-20T14:29:49.188Z,23.87
2022-11-20T14:32:18.217Z,29.73
2022-11-20T14:34:46.299Z,26.67
2022-11-20T14:37:17.751Z,27.40
2022-11-20T14:39:51.123Z,26.47
2022-11-20T14:42:20.221Z,24.50
2022-11-20T14:44:48.310Z,21.73
2022-11-20T14:47:19.547Z,19.10
2022-11-20T14:49:46.141Z,19.97
2022-11-20T14:52:16.791Z,18.00
2022-11-20T14:54:48.325Z,17.40
2022-11-20T14:57:40.551Z,16.67
2022-11-20T15:00:13.207Z,19.00
2022-11-20T15:02:44.458Z,17.83
2022-11-20T15:05:10.702Z,21.90
2022-11-20T15:07:46.096Z,23.00
2022-11-20T15:10:13.728Z,21.87
2022-11-20T15:12:51.404Z,23.00
2022-11-20T15:15:41.057Z,19.73
2022-11-20T15:18:12.925Z,20.60
2022-11-20T15:20:39.073Z,20.00
2022-11-20T15:23:16.401Z,20.97
2022-11-20T15:25:43.070Z,22.90
2022-11-20T15:28:19.315Z,28.50
2022-11-20T15:30:46.712Z,24.10
2022-11-20T15:33:13.420Z,24.33
2022-11-20T15:35:39.511Z,22.00
2022-11-20T15:38:05.794Z,22.47
2022-11-20T15:40:31.986Z,25.00
2022-11-20T15:43:06.960Z,22.83
2022-11-20T15:45:45.295Z,25.80
2022-11-20T15:48:20.256Z,23.40
2022-11-20T15:51:07.180Z,26.13
2022-11-20T15:53:33.277Z,23.27
2022-11-20T15:55:59.343Z,26.63
2022-11-20T15:58:25.503Z,22.23
2022-11-20T16:00:51.562Z,24.10
2022-11-20T16:03:18.547Z,24.70
2022-11-20T16:05:45.173Z,22.17
2022-11-20T16:08:12.101Z,24.30
2022-11-20T16:10:38.787Z,21.57
2022-11-20T16:13:24.333Z,25.17
2022-11-20T16:15:53.189Z,24.50
2022-11-20T16:18:20.932Z,24.30
2022-11-20T16:20:50.601Z,24.37
2022-11-20T16:23:17.289Z,24.23
2022-11-20T16:25:44.078Z,27.70
2022-11-20T16:28:14.656Z,24.90
2022-11-20T16:30:44.001Z,25.20
2022-11-20T16:33:14.761Z,21.47
2022-11-20T16:35:40.875Z,27.13
2022-11-20T16:38:07.207Z,25.40
2022-11-20T16:40:33.278Z,24.33
2022-11-20T16:43:10.555Z,30.87
2022-11-20T16:45:40.924Z,26.07
2022-11-20T16:48:06.979Z,28.60
2022-11-20T16:50:33.022Z,21.90
2022-11-20T16:52:59.063Z,28.13
2022-11-20T16:55:25.087Z,24.70
2022-11-20T16:57:51.166Z,28.57
2022-11-20T17:00:17.307Z,34.30
2022-11-20T17:02:43.383Z,31.70
2022-11-20T17:05:09.423Z,33.40
2022-11-20T17:07:37.163Z,32.03
2022-11-20T17:10:03.461Z,31.93
2022-11-20T17:12:29.527Z,30.67
2022-11-20T17:14:55.602Z,31.80
2022-11-20T17:17:21.664Z,31.30
2022-11-20T17:19:47.715Z,34.23
2022-11-20T17:22:13.759Z,32.00
2022-11-20T17:24:39.862Z,33.07
2022-11-20T17:27:05.920Z,35.87
2022-11-20T17:29:32.045Z,37.20
2022-11-20T17:31:58.138Z,30.57
2022-11-20T17:34:24.429Z,35.00
2022-11-20T17:36:50.990Z,39.53
2022-11-20T17:39:17.210Z,36.83
2022-11-20T17:41:43.540Z,38.67
2022-11-20T17:44:11.070Z,43.63
2022-11-20T17:46:37.450Z,44.10
2022-11-20T17:49:04.164Z,50.50
2022-11-20T17:51:32.001Z,46.67
2022-11-20T17:54:00.373Z,39.17
2022-11-20T17:56:48.841Z,37.07
2022-11-20T17:59:15.021Z,41.57
2022-11-20T18:01:43.665Z,36.60
2022-11-20T18:04:10.997Z,50.00
2022-11-20T18:06:37.343Z,39.90
2022-11-20T18:09:04.560Z,42.83
2022-11-20T18:11:33.308Z,42.87
2022-11-20T18:14:19.411Z,41.63
2022-11-20T18:16:56.596Z,35.27
2022-11-20T18:19:32.674Z,42.13
2022-11-20T18:22:00.962Z,34.10
2022-11-20T18:24:27.192Z,36.63
2022-11-20T18:26:53.249Z,45.83
2022-11-20T18:29:19.288Z,37.70
2022-11-20T18:31:45.348Z,43.23
2022-11-20T18:34:13.371Z,39.10
2022-11-20T18:36:40.788Z,36.90
2022-11-20T18:39:06.921Z,36.00
2022-11-20T18:41:51.523Z,36.20
2022-11-20T18:44:38.391Z,37.03
2022-11-20T18:47:13.719Z,50.17
2022-11-20T18:49:51.916Z,41.30
2022-11-20T18:52:23.619Z,48.20
2022-11-20T18:54:50.314Z,40.20
2022-11-20T18:57:21.914Z,47.90
2022-11-20T18:59:48.041Z,46.47
2022-11-20T19:02:15.864Z,42.30
2022-11-20T19:04:41.985Z,38.70
2022-11-20T19:07:11.147Z,43.77
2022-11-20T19:09:39.189Z,38.40
2022-11-20T19:12:06.526Z,34.07
2022-11-20T19:14:32.625Z,39.20
2022-11-20T19:16:58.726Z,37.77
2022-11-20T19:19:25.116Z,33.93
2022-11-20T19:21:52.098Z,34.47
2022-11-20T19:24:18.324Z,32.50
2022-11-20T19:26:44.356Z,36.70
2022-11-20T19:29:12.136Z,28.40
2022-11-20T19:31:38.175Z,32.63
2022-11-20T19:34:04.377Z,33.60
2022-11-20T19:36:32.663Z,30.50
2022-11-20T19:38:59.427Z,39.50
2022-11-20T19:41:30.990Z,35.70
2022-11-20T19:43:58.242Z,34.60
2022-11-20T19:46:24.939Z,36.13
2022-11-20T19:48:51.295Z,40.30
2022-11-20T19:51:19.816Z,38.13
2022-11-20T19:53:45.928Z,34.37
2022-11-20T19:56:12.148Z,40.33
2022-11-20T19:58:38.745Z,37.30
2022-11-20T20:01:12.995Z,30.93
2022-11-20T20:03:40.076Z,41.27
2022-11-20T20:06:09.006Z,38.20
2022-11-20T20:08:36.212Z,36.67
2022-11-20T20:11:17.473Z,40.60
2022-11-20T20:13:44.293Z,39.43
2022-11-20T20:16:12.516Z,64.07
2022-11-20T20:18:38.953Z,37.40
2022-11-20T20:21:09.903Z,37.90
2022-11-20T20:23:36.500Z,38.87
2022-11-20T20:26:03.811Z,37.25
2022-11-20T20:28:30.035Z,32.50
2022-11-20T20:30:56.482Z,31.23
2022-11-20T20:33:23.009Z,28.20
2022-11-20T20:35:49.239Z,32.50
2022-11-20T20:38:21.738Z,30.70
2022-11-20T20:40:52.602Z,31.80
2022-11-20T20:43:23.681Z,28.03
2022-11-20T20:45:54.639Z,31.70
2022-11-20T20:48:25.875Z,32.00
2022-11-20T20:51:00.368Z,31.17
2022-11-20T20:53:31.427Z,30.60
2022-11-20T20:56:02.170Z,28.90
2022-11-20T20:58:36.992Z,38.33
2022-11-20T21:01:13.429Z,28.40
2022-11-20T21:03:44.270Z,25.93
2022-11-20T21:06:19.227Z,28.10
2022-11-20T21:08:50.015Z,28.37
2022-11-20T21:11:20.078Z,28.63
2022-11-20T21:13:50.544Z,26.70
2022-11-20T21:16:24.366Z,27.77
2022-11-20T21:18:54.656Z,31.57
2022-11-20T21:21:43.385Z,31.77
2022-11-20T21:24:10.198Z,29.20
2022-11-20T21:26:36.209Z,28.00
2022-11-20T21:29:02.242Z,27.93
2022-11-20T21:31:29.372Z,30.60
2022-11-20T21:33:57.532Z,26.77
2022-11-20T21:36:28.721Z,23.10
2022-11-20T21:38:58.908Z,22.07
2022-11-20T21:41:34.342Z,26.47
2022-11-20T21:46:51.610Z,24.50
2022-11-20T21:49:22.692Z,23.77
2022-11-20T21:51:49.009Z,25.83
2022-11-20T21:54:16.781Z,23.23
2022-11-20T21:56:42.797Z,19.70
2022-11-20T21:59:13.372Z,22.77
2022-11-20T22:01:39.637Z,23.87
2022-11-20T22:04:07.054Z,26.50
2022-11-20T22:06:34.669Z,25.40
2022-11-20T22:09:06.596Z,27.33
2022-11-20T22:11:36.204Z,34.80
2022-11-20T22:14:21.651Z,28.57
2022-11-20T22:16:52.883Z,30.93
2022-11-20T22:19:20.085Z,30.20
2022-11-20T22:21:46.630Z,28.57
2022-11-20T22:24:15.234Z,32.57
2022-11-20T22:26:44.700Z,31.93
2022-11-20T22:29:15.720Z,32.47
2022-11-20T22:31:41.813Z,28.63
2022-11-20T22:34:12.502Z,27.37
2022-11-20T22:36:39.837Z,29.40
2022-11-20T22:39:10.093Z,23.53
2022-11-20T22:41:40.232Z,26.80
2022-11-20T22:44:13.689Z,24.37
2022-11-20T22:46:42.626Z,24.53
2022-11-20T22:49:12.505Z,23.20
2022-11-20T22:51:42.644Z,25.03
2022-11-20T22:54:12.912Z,27.77
2022-11-20T22:56:42.510Z,27.13
2022-11-20T22:59:12.009Z,26.10
2022-11-20T23:01:41.317Z,25.27
2022-11-20T23:04:11.112Z,29.33
2022-11-20T23:06:40.339Z,29.67
2022-11-20T23:09:12.223Z,23.23
2022-11-20T23:11:47.886Z,29.10
2022-11-20T23:14:15.284Z,27.07
2022-11-20T23:16:45.131Z,27.73
2022-11-20T23:19:15.658Z,27.03
2022-11-20T23:21:46.089Z,27.87
2022-11-20T23:24:16.772Z,29.60
2022-11-20T23:26:47.255Z,26.97
2022-11-20T23:29:20.415Z,29.60
2022-11-20T23:31:49.824Z,28.10
2022-11-20T23:34:19.488Z,28.60
2022-11-20T23:36:48.818Z,30.80
2022-11-20T23:39:18.251Z,30.57
2022-11-20T23:41:47.500Z,35.57
2022-11-20T23:44:17.537Z,29.50
2022-11-20T23:46:46.871Z,28.00
2022-11-20T23:49:16.626Z,26.20
2022-11-20T23:51:46.376Z,23.00
2022-11-20T23:54:16.193Z,23.87
2022-11-20T23:56:49.471Z,24.63
2022-11-20T23:59:19.382Z,22.57
